createdAt,value
2022-10-24T00:00:42.764Z,16.34
2022-10-24T00:03:11.629Z,16.33
2022-10-24T00:05:43.018Z,16.28
2022-10-24T00:08:11.441Z,16.31
2022-10-24T00:10:42.348Z,16.29
2022-10-24T00:13:12.179Z,16.26
2022-10-24T00:15:40.786Z,16.26
2022-10-24T00:18:08.484Z,16.25
2022-10-24T00:20:37.163Z,16.25
2022-10-24T00:23:05.015Z,16.26
2022-10-24T00:25:32.880Z,16.27
2022-10-24T00:28:00.674Z,16.27
2022-10-24T00:30:30.043Z,16.28
2022-10-24T00:32:57.789Z,16.29
2022-10-24T00:35:25.599Z,16.30
2022-10-24T00:37:53.358Z,16.29
2022-10-24T00:40:22.181Z,16.32
2022-10-24T00:42:50.262Z,16.30
2022-10-24T00:45:43.476Z,16.30
2022-10-24T00:48:17.234Z,16.29
2022-10-24T00:50:46.376Z,16.23
2022-10-24T00:53:16.001Z,16.17
2022-10-24T00:55:44.653Z,16.16
2022-10-24T00:58:13.207Z,16.12
2022-10-24T01:00:42.292Z,16.09
2022-10-24T01:03:11.968Z,16.06
2022-10-24T01:05:56.726Z,16.02
2022-10-24T01:08:31.730Z,16.02
2022-10-24T01:11:06.223Z,15.99
2022-10-24T01:13:44.399Z,15.96
2022-10-24T01:16:16.934Z,15.94
2022-10-24T01:18:51.032Z,15.91
2022-10-24T01:21:31.333Z,15.86
2022-10-24T01:24:11.497Z,15.85
2022-10-24T01:27:22.264Z,15.83
2022-10-24T01:30:02.629Z,15.75
2022-10-24T01:32:46.264Z,15.83
2022-10-24T01:35:36.490Z,15.81
2022-10-24T01:38:14.337Z,15.88
2022-10-24T01:40:50.744Z,15.92
2022-10-24T01:43:24.155Z,15.90
2022-10-24T01:45:59.130Z,15.92
2022-10-24T01:48:29.585Z,15.93
2022-10-24T01:50:59.522Z,15.94
2022-10-24T01:53:29.218Z,15.93
2022-10-24T01:55:58.422Z,15.92
2022-10-24T01:58:26.440Z,15.90
2022-10-24T02:01:01.021Z,15.91
2022-10-24T02:03:33.719Z,15.91
2022-10-24T02:06:08.126Z,15.93
2022-10-24T02:08:40.095Z,15.91
2022-10-24T02:11:10.682Z,15.88
2022-10-24T02:13:45.595Z,15.91
2022-10-24T02:16:18.506Z,15.91
2022-10-24T02:18:47.860Z,15.94
2022-10-24T02:21:24.728Z,15.91
2022-10-24T02:23:56.595Z,15.90
2022-10-24T02:26:32.371Z,15.92
2022-10-24T02:29:03.604Z,15.92
2022-10-24T02:31:37.395Z,15.92
2022-10-24T02:34:08.862Z,15.88
2022-10-24T02:36:38.514Z,15.97
2022-10-24T02:39:10.025Z,15.96
2022-10-24T02:41:40.754Z,15.98
2022-10-24T02:44:10.728Z,16.00
2022-10-24T02:46:40.537Z,15.98
2022-10-24T02:49:08.651Z,16.01
2022-10-24T02:51:39.189Z,16.02
2022-10-24T02:54:07.163Z,16.02
2022-10-24T02:56:36.260Z,16.01
2022-10-24T02:59:04.025Z,16.00
2022-10-24T03:01:31.864Z,16.07
2022-10-24T03:04:01.047Z,16.05
2022-10-24T03:06:28.835Z,16.04
2022-10-24T03:08:56.569Z,16.05
2022-10-24T03:11:24.337Z,16.02
2022-10-24T03:13:52.694Z,16.04
2022-10-24T03:16:20.904Z,16.05
2022-10-24T03:18:48.600Z,16.05
2022-10-24T03:21:17.700Z,16.03
2022-10-24T03:23:45.428Z,16.05
2022-10-24T03:26:13.300Z,16.08
2022-10-24T03:28:41.103Z,16.07
2022-10-24T03:31:09.426Z,16.09
2022-10-24T03:33:37.332Z,16.10
2022-10-24T03:36:06.439Z,16.09
2022-10-24T03:38:35.645Z,16.09
2022-10-24T03:41:03.321Z,16.05
2022-10-24T03:43:31.057Z,16.05
2022-10-24T03:45:59.512Z,16.06
2022-10-24T03:48:27.895Z,16.06
2022-10-24T03:50:56.148Z,16.09
2022-10-24T03:53:23.996Z,15.99
2022-10-24T03:55:53.214Z,16.06
2022-10-24T03:58:20.975Z,16.06
2022-10-24T04:00:48.739Z,16.07
2022-10-24T04:03:16.472Z,16.08
2022-10-24T04:05:44.215Z,16.08
2022-10-24T04:08:11.977Z,16.09
2022-10-24T04:10:39.675Z,16.10
2022-10-24T04:13:08.723Z,16.14
2022-10-24T04:15:36.531Z,16.12
2022-10-24T04:18:04.827Z,16.04
2022-10-24T04:20:32.531Z,16.08
2022-10-24T04:23:02.413Z,16.09
2022-10-24T04:25:32.424Z,16.12
2022-10-24T04:28:00.099Z,16.11
2022-10-24T04:30:30.012Z,16.09
2022-10-24T04:32:58.209Z,16.11
2022-10-24T04:35:26.662Z,16.08
2022-10-24T04:37:54.426Z,16.08
2022-10-24T04:40:22.186Z,16.08
2022-10-24T04:42:49.836Z,16.09
2022-10-24T04:45:17.716Z,16.10
2022-10-24T04:47:47.037Z,16.14
2022-10-24T04:50:14.909Z,16.15
2022-10-24T04:52:42.542Z,16.14
2022-10-24T04:55:10.554Z,16.13
2022-10-24T04:57:38.545Z,16.15
2022-10-24T05:00:07.803Z,16.09
2022-10-24T05:02:35.625Z,16.10
2022-10-24T05:05:05.193Z,16.09
2022-10-24T05:07:32.984Z,16.07
2022-10-24T05:10:00.808Z,15.94
2022-10-24T05:12:28.617Z,16.01
2022-10-24T05:14:56.314Z,16.00
2022-10-24T05:17:24.346Z,15.99
2022-10-24T05:19:52.056Z,15.97
2022-10-24T05:22:21.324Z,16.01
2022-10-24T05:24:49.096Z,16.03
2022-10-24T05:27:20.673Z,16.02
2022-10-24T05:29:48.431Z,16.03
2022-10-24T05:32:16.127Z,16.05
2022-10-24T05:34:43.839Z,16.08
2022-10-24T05:37:11.567Z,16.11
2022-10-24T05:39:41.122Z,16.07
2022-10-24T05:42:11.028Z,16.06
2022-10-24T05:44:39.326Z,16.05
2022-10-24T05:47:07.430Z,16.00
2022-10-24T05:49:35.455Z,15.96
2022-10-24T05:52:03.346Z,15.90
2022-10-24T05:54:37.822Z,15.95
2022-10-24T05:57:18.122Z,15.92
2022-10-24T05:59:45.844Z,15.87
2022-10-24T06:02:19.093Z,15.85
2022-10-24T06:04:48.144Z,15.82
2022-10-24T06:07:15.896Z,15.83
2022-10-24T06:09:43.659Z,15.88
2022-10-24T06:12:12.538Z,15.89
2022-10-24T06:14:41.831Z,15.88
2022-10-24T06:17:11.781Z,15.87
2022-10-24T06:19:39.739Z,15.84
2022-10-24T06:22:09.468Z,15.78
2022-10-24T06:24:37.878Z,15.75
2022-10-24T06:27:07.028Z,15.77
2022-10-24T06:29:35.538Z,15.78
2022-10-24T06:32:04.562Z,15.79
2022-10-24T06:34:32.393Z,15.79
2022-10-24T06:37:00.048Z,15.77
2022-10-24T06:39:27.801Z,15.75
2022-10-24T06:41:55.444Z,15.76
2022-10-24T06:44:23.578Z,15.78
2022-10-24T06:46:51.297Z,15.84
2022-10-24T06:49:20.570Z,15.85
2022-10-24T06:51:48.254Z,15.80
2022-10-24T06:54:16.292Z,15.81
2022-10-24T06:56:44.073Z,15.74
2022-10-24T06:59:13.994Z,15.84
2022-10-24T07:01:41.899Z,15.87
2022-10-24T07:04:09.943Z,15.86
2022-10-24T07:06:39.245Z,15.93
2022-10-24T07:09:10.231Z,15.98
2022-10-24T07:11:40.633Z,16.03
2022-10-24T07:14:09.461Z,16.05
2022-10-24T07:16:37.872Z,16.06
2022-10-24T07:19:06.642Z,16.08
2022-10-24T07:21:34.818Z,16.10
2022-10-24T07:24:05.368Z,16.13
2022-10-24T07:26:33.271Z,16.15
2022-10-24T07:31:36.707Z,16.23
2022-10-24T07:34:06.686Z,16.27
2022-10-24T07:36:34.392Z,16.29
2022-10-24T07:39:02.614Z,16.32
2022-10-24T07:41:33.513Z,16.37
2022-10-24T07:44:03.079Z,16.41
2022-10-24T07:46:31.559Z,16.46
2022-10-24T07:48:59.296Z,16.47
2022-10-24T07:51:28.456Z,16.49
2022-10-24T07:53:57.180Z,16.44
2022-10-24T07:56:25.288Z,16.47
2022-10-24T07:58:55.010Z,16.48
2022-10-24T08:01:25.334Z,16.49
2022-10-24T08:03:53.091Z,16.50
2022-10-24T08:06:24.530Z,16.51
2022-10-24T08:08:52.574Z,16.52
2022-10-24T08:11:22.704Z,16.50
2022-10-24T08:13:51.717Z,16.54
2022-10-24T08:16:22.735Z,16.58
2022-10-24T08:18:52.151Z,16.65
2022-10-24T08:21:21.787Z,16.71
2022-10-24T08:23:52.108Z,16.74
2022-10-24T08:26:21.862Z,16.77
2022-10-24T08:28:50.024Z,16.82
2022-10-24T08:31:21.575Z,16.87
2022-10-24T08:33:51.954Z,16.91
2022-10-24T08:36:26.855Z,16.94
2022-10-24T08:38:54.857Z,16.84
2022-10-24T08:41:28.865Z,16.99
2022-10-24T08:43:58.596Z,17.03
2022-10-24T08:46:49.070Z,17.04
2022-10-24T08:49:24.810Z,17.05
2022-10-24T08:51:55.647Z,17.08
2022-10-24T08:54:29.183Z,17.03
2022-10-24T08:56:59.890Z,17.08
2022-10-24T08:59:30.968Z,17.12
2022-10-24T09:02:04.537Z,17.17
2022-10-24T09:04:40.207Z,17.21
2022-10-24T09:07:15.420Z,17.17
2022-10-24T09:09:47.648Z,17.23
2022-10-24T09:12:16.994Z,17.26
2022-10-24T09:14:46.995Z,17.29
2022-10-24T09:17:21.452Z,17.29
2022-10-24T09:19:53.231Z,17.35
2022-10-24T09:22:22.319Z,17.38
2022-10-24T09:24:54.291Z,17.40
2022-10-24T09:27:25.301Z,17.43
2022-10-24T09:29:53.587Z,17.48
2022-10-24T09:32:26.763Z,17.50
2022-10-24T09:34:55.153Z,17.45
2022-10-24T09:37:43.948Z,17.53
2022-10-24T09:40:19.787Z,17.50
2022-10-24T09:43:01.038Z,17.48
2022-10-24T09:45:43.382Z,17.49
2022-10-24T09:48:26.168Z,17.48
2022-10-24T09:50:58.077Z,17.47
2022-10-24T09:53:29.084Z,17.50
2022-10-24T09:56:00.567Z,17.48
2022-10-24T09:58:32.732Z,17.43
2022-10-24T10:01:05.191Z,17.42
2022-10-24T10:03:36.024Z,17.47
2022-10-24T10:06:16.356Z,17.47
2022-10-24T10:08:51.326Z,17.48
2022-10-24T10:11:26.575Z,17.54
2022-10-24T10:13:55.464Z,17.63
2022-10-24T10:16:25.976Z,17.69
2022-10-24T10:19:03.643Z,17.74
2022-10-24T10:21:56.200Z,17.69
2022-10-24T10:24:29.484Z,17.73
2022-10-24T10:26:57.335Z,17.70
2022-10-24T10:29:25.838Z,17.70
2022-10-24T10:32:03.050Z,17.70
2022-10-24T10:34:40.540Z,17.72
2022-10-24T10:41:02.832Z,17.68
2022-10-24T10:43:38.606Z,17.69
2022-10-24T10:46:17.604Z,17.78
2022-10-24T10:48:56.592Z,17.79
2022-10-24T10:51:39.940Z,17.88
2022-10-24T10:54:31.455Z,17.87
2022-10-24T10:57:04.139Z,17.91
2022-10-24T10:59:46.495Z,17.89
2022-10-24T11:02:36.002Z,17.94
2022-10-24T11:05:17.996Z,17.96
2022-10-24T11:07:57.846Z,17.92
2022-10-24T11:10:48.042Z,17.91
2022-10-24T11:13:25.352Z,17.93
2022-10-24T11:16:01.645Z,17.93
2022-10-24T11:18:35.628Z,18.03
2022-10-24T11:21:09.756Z,18.08
2022-10-24T11:23:44.523Z,18.11
2022-10-24T11:26:19.953Z,18.13
2022-10-24T11:29:03.122Z,18.12
2022-10-24T11:31:35.115Z,18.21
2022-10-24T11:34:12.281Z,18.16
2022-10-24T11:36:44.376Z,18.15
2022-10-24T11:39:19.196Z,18.12
2022-10-24T11:41:54.773Z,18.10
2022-10-24T11:44:39.467Z,18.10
2022-10-24T11:47:35.007Z,18.10
2022-10-24T11:50:11.539Z,18.03
2022-10-24T11:52:43.892Z,18.05
2022-10-24T11:55:19.786Z,18.05
2022-10-24T11:57:55.388Z,18.03
2022-10-24T12:00:26.827Z,18.06
2022-10-24T12:03:21.135Z,18.02
2022-10-24T12:06:00.570Z,18.00
2022-10-24T12:09:17.010Z,17.95
2022-10-24T12:12:04.546Z,18.05
2022-10-24T12:15:21.061Z,18.07
2022-10-24T12:18:16.111Z,18.02
2022-10-24T12:20:48.616Z,18.01
2022-10-24T12:23:26.332Z,18.04
2022-10-24T12:26:10.166Z,18.04
2022-10-24T12:28:41.823Z,18.04
2022-10-24T12:31:14.620Z,18.05
2022-10-24T12:33:43.627Z,18.08
2022-10-24T12:36:52.550Z,18.07
2022-10-24T12:39:33.144Z,18.00
2022-10-24T12:42:01.096Z,18.03
2022-10-24T12:44:54.064Z,18.09
2022-10-24T12:47:40.177Z,18.08
2022-10-24T12:50:45.971Z,18.06
2022-10-24T12:53:33.771Z,18.06
2022-10-24T12:56:23.429Z,18.06
2022-10-24T12:58:59.797Z,18.07
2022-10-24T13:01:34.364Z,18.07
2022-10-24T13:04:26.299Z,18.06
2022-10-24T13:07:21.090Z,18.00
2022-10-24T13:10:04.478Z,18.06
2022-10-24T13:12:47.759Z,18.07
2022-10-24T13:15:28.133Z,18.05
2022-10-24T13:18:08.865Z,18.10
2022-10-24T13:20:39.552Z,18.05
2022-10-24T13:23:16.287Z,18.05
2022-10-24T13:25:44.767Z,18.03
2022-10-24T13:28:39.001Z,18.02
2022-10-24T13:31:44.469Z,18.01
2022-10-24T13:34:20.304Z,17.98
2022-10-24T13:36:51.612Z,17.96
2022-10-24T13:39:22.929Z,17.98
2022-10-24T13:41:58.020Z,18.00
2022-10-24T13:44:30.792Z,18.04
2022-10-24T13:47:07.488Z,18.10
2022-10-24T13:49:40.897Z,18.15
2022-10-24T13:52:22.146Z,18.15
2022-10-24T13:54:56.659Z,18.11
2022-10-24T13:57:34.825Z,18.07
2022-10-24T14:00:19.969Z,18.09
2022-10-24T14:02:53.407Z,18.07
2022-10-24T14:05:33.079Z,18.00
2022-10-24T14:08:02.288Z,18.05
2022-10-24T14:10:30.827Z,18.08
2022-10-24T14:13:05.047Z,18.04
2022-10-24T14:15:33.928Z,18.10
2022-10-24T14:18:14.315Z,18.06
2022-10-24T14:20:47.935Z,18.11
2022-10-24T14:23:28.287Z,18.09
2022-10-24T14:25:59.229Z,18.00
2022-10-24T14:28:33.694Z,18.04
2022-10-24T14:31:03.334Z,18.05
2022-10-24T14:33:32.832Z,18.02
2022-10-24T14:36:15.141Z,18.01
2022-10-24T14:38:43.576Z,18.07
2022-10-24T14:41:11.867Z,18.06
2022-10-24T14:43:45.078Z,18.08
2022-10-24T14:46:35.195Z,18.05
2022-10-24T14:49:22.484Z,18.06
2022-10-24T14:54:31.240Z,18.10
2022-10-24T14:57:00.680Z,18.11
2022-10-24T14:59:33.884Z,18.14
2022-10-24T15:02:05.482Z,18.02
2022-10-24T15:04:39.538Z,18.16
2022-10-24T15:07:27.975Z,18.13
2022-10-24T15:09:57.585Z,18.16
2022-10-24T15:12:29.148Z,18.15
2022-10-24T15:15:01.119Z,18.20
2022-10-24T15:17:32.695Z,18.16
2022-10-24T15:20:02.962Z,18.13
2022-10-24T15:22:34.909Z,18.13
2022-10-24T15:25:06.603Z,18.13
2022-10-24T15:27:40.471Z,18.10
2022-10-24T15:30:14.400Z,18.06
2022-10-24T15:32:42.115Z,18.08
2022-10-24T15:35:10.335Z,18.06
2022-10-24T15:37:39.367Z,18.03
2022-10-24T15:40:16.332Z,18.04
2022-10-24T15:42:44.246Z,17.96
2022-10-24T15:45:15.285Z,17.95
2022-10-24T15:47:44.644Z,17.97
2022-10-24T15:50:15.014Z,17.94
2022-10-24T15:52:47.488Z,17.89
2022-10-24T15:55:18.460Z,17.86
2022-10-24T15:57:46.676Z,17.81
2022-10-24T16:00:17.561Z,17.82
2022-10-24T16:02:48.331Z,17.84
2022-10-24T16:05:19.265Z,17.81
2022-10-24T16:07:48.984Z,17.80
2022-10-24T16:13:10.675Z,17.70
2022-10-24T16:15:39.696Z,17.70
2022-10-24T16:18:07.527Z,17.67
2022-10-24T16:20:36.494Z,17.63
2022-10-24T16:23:06.875Z,17.65
2022-10-24T16:25:37.690Z,17.44
2022-10-24T16:28:07.267Z,17.57
2022-10-24T16:30:37.726Z,17.56
2022-10-24T16:33:06.102Z,17.54
2022-10-24T16:35:36.661Z,17.53
2022-10-24T16:38:07.496Z,17.39
2022-10-24T16:43:09.231Z,17.53
2022-10-24T16:45:37.001Z,17.51
2022-10-24T16:48:05.272Z,17.52
2022-10-24T16:50:33.634Z,17.50
2022-10-24T16:53:04.152Z,17.48
2022-10-24T16:55:33.602Z,17.47
2022-10-24T16:58:01.555Z,17.43
2022-10-24T17:00:30.282Z,17.40
2022-10-24T17:02:58.896Z,17.26
2022-10-24T17:05:29.018Z,17.41
2022-10-24T17:07:57.309Z,17.38
2022-10-24T17:10:25.413Z,17.30
2022-10-24T17:12:54.556Z,17.23
2022-10-24T17:15:22.899Z,17.37
2022-10-24T17:17:50.833Z,17.38
2022-10-24T17:20:18.794Z,17.28
2022-10-24T17:22:47.410Z,17.28
2022-10-24T17:25:20.628Z,17.37
2022-10-24T17:27:49.026Z,17.40
2022-10-24T17:30:20.452Z,17.38
2022-10-24T17:32:48.595Z,17.32
2022-10-24T17:35:20.433Z,17.37
2022-10-24T17:37:57.236Z,17.28
2022-10-24T17:40:29.187Z,17.27
2022-10-24T17:42:57.483Z,17.34
2022-10-24T17:45:26.918Z,17.28
2022-10-24T17:47:55.510Z,17.29
2022-10-24T17:50:23.234Z,17.27
2022-10-24T17:52:52.106Z,17.28
2022-10-24T17:55:44.494Z,17.25
2022-10-24T17:58:10.229Z,17.13
2022-10-24T18:00:39.758Z,17.21
2022-10-24T18:03:08.689Z,17.20
2022-10-24T18:05:38.410Z,17.20
2022-10-24T18:08:08.233Z,17.13
2022-10-24T18:10:37.708Z,17.11
2022-10-24T18:13:05.710Z,16.72
2022-10-24T18:15:33.629Z,17.13
2022-10-24T18:18:02.875Z,17.09
2022-10-24T18:20:32.251Z,17.07
2022-10-24T18:23:01.454Z,17.03
2022-10-24T18:25:37.338Z,17.09
2022-10-24T18:28:05.674Z,16.68
2022-10-24T18:30:35.386Z,16.78
2022-10-24T18:33:06.500Z,17.08
2022-10-24T18:35:36.428Z,17.09
2022-10-24T18:38:04.200Z,17.11
2022-10-24T18:40:35.081Z,17.11
2022-10-24T18:43:05.221Z,17.07
2022-10-24T18:45:33.863Z,17.07
2022-10-24T18:48:02.424Z,17.08
2022-10-24T18:50:31.871Z,17.04
2022-10-24T18:53:05.007Z,17.01
2022-10-24T18:55:34.319Z,16.97
2022-10-24T18:58:02.770Z,16.96
2022-10-24T19:00:32.676Z,16.76
2022-10-24T19:03:17.524Z,16.93
2022-10-24T19:05:52.030Z,16.96
2022-10-24T19:08:25.231Z,17.00
2022-10-24T19:10:55.803Z,17.00
2022-10-24T19:13:25.137Z,17.05
2022-10-24T19:15:58.022Z,17.06
2022-10-24T19:18:27.227Z,17.06
2022-10-24T19:20:56.495Z,16.93
2022-10-24T19:23:24.677Z,17.07
2022-10-24T19:25:53.002Z,17.02
2022-10-24T19:28:21.575Z,17.00
2022-10-24T19:30:49.657Z,16.64
2022-10-24T19:33:17.742Z,16.97
2022-10-24T19:35:47.004Z,16.94
2022-10-24T19:38:17.439Z,16.71
2022-10-24T19:40:46.889Z,16.94
2022-10-24T19:43:14.753Z,16.72
2022-10-24T19:45:50.192Z,16.96
2022-10-24T19:48:22.891Z,16.35
2022-10-24T19:50:51.470Z,16.94
2022-10-24T19:53:20.544Z,16.90
2022-10-24T19:55:48.435Z,16.87
2022-10-24T19:58:19.946Z,16.87
2022-10-24T20:00:47.698Z,16.93
2022-10-24T20:03:15.954Z,16.93
2022-10-24T20:05:43.835Z,16.87
2022-10-24T20:08:11.559Z,16.88
2022-10-24T20:10:40.603Z,16.83
2022-10-24T20:13:08.280Z,16.85
2022-10-24T20:15:35.923Z,16.85
2022-10-24T20:18:03.676Z,16.82
2022-10-24T20:20:31.564Z,16.83
2022-10-24T20:22:59.427Z,16.81
2022-10-24T20:25:27.248Z,16.81
2022-10-24T20:27:56.336Z,16.73
2022-10-24T20:30:24.096Z,16.75
2022-10-24T20:32:51.823Z,16.72
2022-10-24T20:35:22.111Z,16.71
2022-10-24T20:37:50.188Z,16.50
2022-10-24T20:40:18.185Z,16.62
2022-10-24T20:42:46.971Z,16.71
2022-10-24T20:45:20.469Z,16.73
2022-10-24T20:47:50.885Z,16.74
2022-10-24T20:50:18.798Z,16.74
2022-10-24T20:52:46.702Z,16.77
2022-10-24T20:55:25.146Z,16.78
2022-10-24T20:58:02.282Z,16.77
2022-10-24T21:00:31.473Z,16.75
2022-10-24T21:02:59.247Z,16.78
2022-10-24T21:05:28.988Z,16.79
2022-10-24T21:07:56.896Z,16.77
2022-10-24T21:10:24.608Z,16.70
2022-10-24T21:12:52.569Z,16.75
2022-10-24T21:15:20.537Z,16.75
2022-10-24T21:17:49.602Z,16.74
2022-10-24T21:20:17.375Z,16.73
2022-10-24T21:22:45.067Z,16.71
2022-10-24T21:25:12.800Z,16.71
2022-10-24T21:27:40.528Z,16.74
2022-10-24T21:30:14.293Z,16.74
2022-10-24T21:32:42.541Z,16.73
2022-10-24T21:35:11.773Z,16.72
2022-10-24T21:37:39.456Z,16.68
2022-10-24T21:40:08.241Z,16.60
2022-10-24T21:42:36.023Z,16.68
2022-10-24T21:45:03.980Z,16.69
2022-10-24T21:47:32.056Z,16.71
2022-10-24T21:49:59.765Z,16.71
2022-10-24T21:52:28.873Z,16.69
2022-10-24T21:54:56.891Z,16.66
2022-10-24T21:57:24.723Z,16.49
2022-10-24T21:59:52.395Z,16.63
2022-10-24T22:02:20.177Z,16.64
2022-10-24T22:04:48.271Z,16.64
2022-10-24T22:07:16.375Z,16.60
2022-10-24T22:09:45.544Z,16.57
2022-10-24T22:12:13.256Z,16.55
2022-10-24T22:14:41.020Z,16.54
2022-10-24T22:17:08.733Z,16.53
2022-10-24T22:19:36.388Z,16.51
2022-10-24T22:22:04.309Z,16.46
2022-10-24T22:24:31.976Z,16.46
2022-10-24T22:27:01.073Z,16.41
2022-10-24T22:29:28.914Z,16.35
2022-10-24T22:31:57.189Z,16.36
2022-10-24T22:34:26.114Z,16.38
2022-10-24T22:37:05.253Z,16.40
2022-10-24T22:39:33.805Z,16.39
2022-10-24T22:42:03.483Z,16.35
2022-10-24T22:44:31.693Z,16.20
2022-10-24T22:47:26.120Z,16.37
2022-10-24T22:50:03.687Z,16.35
2022-10-24T22:52:31.845Z,16.31
2022-10-24T22:55:00.017Z,16.29
2022-10-24T22:57:29.624Z,16.38
2022-10-24T22:59:57.826Z,16.37
2022-10-24T23:02:33.690Z,16.39
2022-10-24T23:05:06.070Z,16.39
2022-10-24T23:07:42.947Z,16.38
2022-10-24T23:10:13.798Z,16.39
2022-10-24T23:12:43.597Z,16.36
2022-10-24T23:15:14.006Z,16.36
2022-10-24T23:17:42.355Z,16.34
2022-10-24T23:20:23.955Z,16.27
2022-10-24T23:23:03.002Z,16.32
2022-10-24T23:25:43.247Z,16.30
2022-10-24T23:28:20.144Z,16.27
2022-10-24T23:30:48.318Z,16.25
2022-10-24T23:33:27.280Z,16.27
2022-10-24T23:35:59.004Z,16.22
2022-10-24T23:38:27.929Z,16.24
2022-10-24T23:40:56.379Z,16.17
2022-10-24T23:43:26.071Z,16.11
2022-10-24T23:45:58.467Z,16.16
2022-10-24T23:48:48.073Z,16.15
2022-10-24T23:51:20.993Z,16.17
2022-10-24T23:53:52.774Z,16.15
2022-10-24T23:56:23.304Z,16.12
2022-10-24T23:58:52.681Z,16.12
